sensor_id;sensor_type;location;lat;lon;timestamp;temperature;humidity
42019;DHT22;27703;51.980;5.848;2023-05-07T00:01:13;16.60;99.90
42019;DHT22;27703;51.980;5.848;2023-05-07T00:03:39;16.60;99.90
42019;DHT22;27703;51.980;5.848;2023-05-07T00:06:04;16.50;99.90
42019;DHT22;27703;51.980;5.848;2023-05-07T00:08:30;16.50;99.90
42019;DHT22;27703;51.980;5.848;2023-05-07T00:10:56;16.50;99.90
42019;DHT22;27703;51.980;5.848;2023-05-07T00:13:21;16.50;99.90
42019;DHT22;27703;51.980;5.848;2023-05-07T00:15:47;16.50;99.90
42019;DHT22;27703;51.980;5.848;2023-05-07T00:18:12;16.50;99.90
42019;DHT22;27703;51.980;5.848;2023-05-07T00:20:38;16.50;99.90
42019;DHT22;27703;51.980;5.848;2023-05-07T00:23:03;16.40;99.90
42019;DHT22;27703;51.980;5.848;2023-05-07T00:25:29;16.40;99.90
42019;DHT22;27703;51.980;5.848;2023-05-07T00:27:54;16.40;99.90
42019;DHT22;27703;51.980;5.848;2023-05-07T00:30:20;16.40;99.90
42019;DHT22;27703;51.980;5.848;2023-05-07T00:32:46;16.40;99.90
42019;DHT22;27703;51.980;5.848;2023-05-07T00:35:11;16.30;99.90
42019;DHT22;27703;51.980;5.848;2023-05-07T00:37:37;16.30;99.90
42019;DHT22;27703;51.980;5.848;2023-05-07T00:40:03;16.30;99.90
42019;DHT22;27703;51.980;5.848;2023-05-07T00:42:32;16.30;99.90
42019;DHT22;27703;51.980;5.848;2023-05-07T00:44:58;16.30;99.90
42019;DHT22;27703;51.980;5.848;2023-05-07T00:47:25;16.20;99.90
42019;DHT22;27703;51.980;5.848;2023-05-07T00:49:50;16.20;99.90
42019;DHT22;27703;51.980;5.848;2023-05-07T00:52:17;16.20;99.90
42019;DHT22;27703;51.980;5.848;2023-05-07T00:54:45;16.20;99.90
42019;DHT22;27703;51.980;5.848;2023-05-07T00:57:10;16.20;99.90
42019;DHT22;27703;51.980;5.848;2023-05-07T00:59:37;16.10;99.90
42019;DHT22;27703;51.980;5.848;2023-05-07T01:02:02;16.10;99.90
42019;DHT22;27703;51.980;5.848;2023-05-07T01:04:28;16.10;99.90
42019;DHT22;27703;51.980;5.848;2023-05-07T01:06:58;16.10;99.90
42019;DHT22;27703;51.980;5.848;2023-05-07T01:09:25;16.10;99.90
42019;DHT22;27703;51.980;5.848;2023-05-07T01:11:51;16.00;99.90
42019;DHT22;27703;51.980;5.848;2023-05-07T01:14:18;16.00;99.90
42019;DHT22;27703;51.980;5.848;2023-05-07T01:16:44;16.00;99.90
42019;DHT22;27703;51.980;5.848;2023-05-07T01:19:11;16.00;99.90
42019;DHT22;27703;51.980;5.848;2023-05-07T01:21:39;16.00;99.90
42019;DHT22;27703;51.980;5.848;2023-05-07T01:24:10;16.00;99.90
42019;DHT22;27703;51.980;5.848;2023-05-07T01:26:37;16.00;99.90
42019;DHT22;27703;51.980;5.848;2023-05-07T01:29:03;15.90;99.90
42019;DHT22;27703;51.980;5.848;2023-05-07T01:31:29;15.90;99.90
42019;DHT22;27703;51.980;5.848;2023-05-07T01:33:55;16.00;99.90
42019;DHT22;27703;51.980;5.848;2023-05-07T01:36:22;16.00;99.90
42019;DHT22;27703;51.980;5.848;2023-05-07T01:38:51;16.00;99.90
42019;DHT22;27703;51.980;5.848;2023-05-07T01:41:18;16.00;99.90
42019;DHT22;27703;51.980;5.848;2023-05-07T01:43:44;16.00;99.90
42019;DHT22;27703;51.980;5.848;2023-05-07T01:46:10;16.00;99.90
42019;DHT22;27703;51.980;5.848;2023-05-07T01:48:37;16.00;99.90
42019;DHT22;27703;51.980;5.848;2023-05-07T01:51:03;16.00;99.90
42019;DHT22;27703;51.980;5.848;2023-05-07T01:53:35;16.00;99.90
42019;DHT22;27703;51.980;5.848;2023-05-07T01:56:01;16.00;99.90
42019;DHT22;27703;51.980;5.848;2023-05-07T01:58:27;16.00;99.90
42019;DHT22;27703;51.980;5.848;2023-05-07T02:00:53;16.00;99.90
42019;DHT22;27703;51.980;5.848;2023-05-07T02:03:18;16.00;99.90
42019;DHT22;27703;51.980;5.848;2023-05-07T02:05:44;16.00;99.90
42019;DHT22;27703;51.980;5.848;2023-05-07T02:08:09;16.00;99.90
42019;DHT22;27703;51.980;5.848;2023-05-07T02:10:35;16.00;99.90
42019;DHT22;27703;51.980;5.848;2023-05-07T02:13:01;16.00;99.90
42019;DHT22;27703;51.980;5.848;2023-05-07T02:15:27;16.00;99.90
42019;DHT22;27703;51.980;5.848;2023-05-07T02:18:04;15.90;99.90
42019;DHT22;27703;51.980;5.848;2023-05-07T02:20:30;16.00;99.90
42019;DHT22;27703;51.980;5.848;2023-05-07T02:22:55;16.00;99.90
42019;DHT22;27703;51.980;5.848;2023-05-07T02:25:21;15.90;99.90
42019;DHT22;27703;51.980;5.848;2023-05-07T02:27:47;15.90;99.90
42019;DHT22;27703;51.980;5.848;2023-05-07T02:30:13;15.90;99.90
42019;DHT22;27703;51.980;5.848;2023-05-07T02:32:38;15.90;99.90
42019;DHT22;27703;51.980;5.848;2023-05-07T02:35:05;15.90;99.90
42019;DHT22;27703;51.980;5.848;2023-05-07T02:37:30;15.80;99.90
42019;DHT22;27703;51.980;5.848;2023-05-07T02:39:56;15.90;99.90
42019;DHT22;27703;51.980;5.848;2023-05-07T02:42:22;15.90;99.90
42019;DHT22;27703;51.980;5.848;2023-05-07T02:44:47;15.90;99.90
42019;DHT22;27703;51.980;5.848;2023-05-07T02:47:14;15.90;99.90
42019;DHT22;27703;51.980;5.848;2023-05-07T02:49:40;15.90;99.90
42019;DHT22;27703;51.980;5.848;2023-05-07T02:52:06;15.90;99.90
42019;DHT22;27703;51.980;5.848;2023-05-07T02:54:32;15.90;99.90
42019;DHT22;27703;51.980;5.848;2023-05-07T02:56:58;15.90;99.90
42019;DHT22;27703;51.980;5.848;2023-05-07T02:59:23;15.90;99.90
42019;DHT22;27703;51.980;5.848;2023-05-07T03:01:49;15.90;99.90
42019;DHT22;27703;51.980;5.848;2023-05-07T03:04:15;15.90;99.90
42019;DHT22;27703;51.980;5.848;2023-05-07T03:06:41;15.90;99.90
42019;DHT22;27703;51.980;5.848;2023-05-07T03:09:07;15.90;99.90
42019;DHT22;27703;51.980;5.848;2023-05-07T03:11:32;15.90;99.90
42019;DHT22;27703;51.980;5.848;2023-05-07T03:13:58;15.80;99.90
42019;DHT22;27703;51.980;5.848;2023-05-07T03:16:23;15.90;99.90
42019;DHT22;27703;51.980;5.848;2023-05-07T03:18:49;15.80;99.90
42019;DHT22;27703;51.980;5.848;2023-05-07T03:21:15;15.80;99.90
42019;DHT22;27703;51.980;5.848;2023-05-07T03:23:40;15.80;99.90
42019;DHT22;27703;51.980;5.848;2023-05-07T03:26:06;15.80;99.90
42019;DHT22;27703;51.980;5.848;2023-05-07T03:28:31;15.80;99.90
42019;DHT22;27703;51.980;5.848;2023-05-07T03:30:57;15.80;99.90
42019;DHT22;27703;51.980;5.848;2023-05-07T03:33:22;15.80;99.90
42019;DHT22;27703;51.980;5.848;2023-05-07T03:35:48;15.80;99.90
42019;DHT22;27703;51.980;5.848;2023-05-07T03:38:13;15.70;99.90
42019;DHT22;27703;51.980;5.848;2023-05-07T03:40:39;15.70;99.90
42019;DHT22;27703;51.980;5.848;2023-05-07T03:43:05;15.70;99.90
42019;DHT22;27703;51.980;5.848;2023-05-07T03:45:30;15.70;99.90
42019;DHT22;27703;51.980;5.848;2023-05-07T03:47:56;15.60;99.90
42019;DHT22;27703;51.980;5.848;2023-05-07T03:50:21;15.60;99.90
42019;DHT22;27703;51.980;5.848;2023-05-07T03:52:47;15.60;99.90
42019;DHT22;27703;51.980;5.848;2023-05-07T03:55:12;15.60;99.90
42019;DHT22;27703;51.980;5.848;2023-05-07T03:57:38;15.60;99.90
42019;DHT22;27703;51.980;5.848;2023-05-07T04:00:04;15.60;99.90
42019;DHT22;27703;51.980;5.848;2023-05-07T04:02:30;15.60;99.90
42019;DHT22;27703;51.980;5.848;2023-05-07T04:04:56;15.60;99.90
42019;DHT22;27703;51.980;5.848;2023-05-07T04:07:22;15.60;99.90
42019;DHT22;27703;51.980;5.848;2023-05-07T04:09:47;15.60;99.90
42019;DHT22;27703;51.980;5.848;2023-05-07T04:12:13;15.60;99.90
42019;DHT22;27703;51.980;5.848;2023-05-07T04:14:38;15.60;99.90
42019;DHT22;27703;51.980;5.848;2023-05-07T04:17:04;15.50;99.90
42019;DHT22;27703;51.980;5.848;2023-05-07T04:19:33;15.60;99.90
42019;DHT22;27703;51.980;5.848;2023-05-07T04:21:58;15.60;99.90
42019;DHT22;27703;51.980;5.848;2023-05-07T04:24:24;15.50;99.90
42019;DHT22;27703;51.980;5.848;2023-05-07T04:26:50;15.50;99.90
42019;DHT22;27703;51.980;5.848;2023-05-07T04:29:16;15.50;99.90
42019;DHT22;27703;51.980;5.848;2023-05-07T04:31:42;15.50;99.90
42019;DHT22;27703;51.980;5.848;2023-05-07T04:34:10;15.50;99.90
42019;DHT22;27703;51.980;5.848;2023-05-07T04:36:37;15.60;99.90
42019;DHT22;27703;51.980;5.848;2023-05-07T04:39:02;15.50;99.90
42019;DHT22;27703;51.980;5.848;2023-05-07T04:41:28;15.50;99.90
42019;DHT22;27703;51.980;5.848;2023-05-07T04:43:54;15.50;99.90
42019;DHT22;27703;51.980;5.848;2023-05-07T04:46:19;15.50;99.90
42019;DHT22;27703;51.980;5.848;2023-05-07T04:48:45;15.50;99.90
42019;DHT22;27703;51.980;5.848;2023-05-07T04:51:10;15.50;99.90
42019;DHT22;27703;51.980;5.848;2023-05-07T04:53:37;15.50;99.90
42019;DHT22;27703;51.980;5.848;2023-05-07T04:56:02;15.50;99.90
42019;DHT22;27703;51.980;5.848;2023-05-07T04:58:28;15.50;99.90
42019;DHT22;27703;51.980;5.848;2023-05-07T05:00:57;15.50;99.90
42019;DHT22;27703;51.980;5.848;2023-05-07T05:03:22;15.50;99.90
42019;DHT22;27703;51.980;5.848;2023-05-07T05:05:52;15.50;99.90
42019;DHT22;27703;51.980;5.848;2023-05-07T05:08:18;15.50;99.90
42019;DHT22;27703;51.980;5.848;2023-05-07T05:10:44;15.50;99.90
42019;DHT22;27703;51.980;5.848;2023-05-07T05:13:10;15.50;99.90
42019;DHT22;27703;51.980;5.848;2023-05-07T05:15:38;15.50;99.90
42019;DHT22;27703;51.980;5.848;2023-05-07T05:18:03;15.50;99.90
42019;DHT22;27703;51.980;5.848;2023-05-07T05:20:29;15.50;99.90
42019;DHT22;27703;51.980;5.848;2023-05-07T05:22:55;15.50;99.90
42019;DHT22;27703;51.980;5.848;2023-05-07T05:25:21;15.50;99.90
42019;DHT22;27703;51.980;5.848;2023-05-07T05:27:46;15.60;99.90
42019;DHT22;27703;51.980;5.848;2023-05-07T05:30:12;15.50;99.90
42019;DHT22;27703;51.980;5.848;2023-05-07T05:32:38;15.60;99.90
42019;DHT22;27703;51.980;5.848;2023-05-07T05:35:04;15.60;99.90
42019;DHT22;27703;51.980;5.848;2023-05-07T05:37:29;15.50;99.90
42019;DHT22;27703;51.980;5.848;2023-05-07T05:39:56;15.50;99.90
42019;DHT22;27703;51.980;5.848;2023-05-07T05:42:22;15.60;99.90
42019;DHT22;27703;51.980;5.848;2023-05-07T05:44:47;15.50;99.90
42019;DHT22;27703;51.980;5.848;2023-05-07T05:47:13;15.50;99.90
42019;DHT22;27703;51.980;5.848;2023-05-07T05:49:39;15.60;99.90
42019;DHT22;27703;51.980;5.848;2023-05-07T05:52:04;15.60;99.90
42019;DHT22;27703;51.980;5.848;2023-05-07T05:54:30;15.60;99.90
42019;DHT22;27703;51.980;5.848;2023-05-07T05:56:56;15.60;99.90
42019;DHT22;27703;51.980;5.848;2023-05-07T05:59:22;15.60;99.90
42019;DHT22;27703;51.980;5.848;2023-05-07T06:01:47;15.60;99.90
42019;DHT22;27703;51.980;5.848;2023-05-07T06:04:14;15.60;99.90
42019;DHT22;27703;51.980;5.848;2023-05-07T06:06:40;15.70;99.90
42019;DHT22;27703;51.980;5.848;2023-05-07T06:09:05;15.70;99.90
42019;DHT22;27703;51.980;5.848;2023-05-07T06:11:31;15.70;99.90
42019;DHT22;27703;51.980;5.848;2023-05-07T06:13:57;15.70;99.90
42019;DHT22;27703;51.980;5.848;2023-05-07T06:16:24;15.80;99.90
42019;DHT22;27703;51.980;5.848;2023-05-07T06:18:50;15.80;99.90
42019;DHT22;27703;51.980;5.848;2023-05-07T06:21:15;15.80;99.90
42019;DHT22;27703;51.980;5.848;2023-05-07T06:23:41;15.80;99.90
42019;DHT22;27703;51.980;5.848;2023-05-07T06:26:07;15.80;99.90
42019;DHT22;27703;51.980;5.848;2023-05-07T06:28:32;15.80;99.90
42019;DHT22;27703;51.980;5.848;2023-05-07T06:33:38;15.90;99.90
42019;DHT22;27703;51.980;5.848;2023-05-07T06:36:04;15.80;99.90
42019;DHT22;27703;51.980;5.848;2023-05-07T06:38:30;15.80;99.90
42019;DHT22;27703;51.980;5.848;2023-05-07T06:40:56;15.90;99.90
42019;DHT22;27703;51.980;5.848;2023-05-07T06:43:22;15.90;99.90
42019;DHT22;27703;51.980;5.848;2023-05-07T06:45:48;16.00;99.90
42019;DHT22;27703;51.980;5.848;2023-05-07T06:48:13;16.00;99.90
42019;DHT22;27703;51.980;5.848;2023-05-07T06:50:39;16.10;99.90
42019;DHT22;27703;51.980;5.848;2023-05-07T06:53:05;16.10;99.90
42019;DHT22;27703;51.980;5.848;2023-05-07T06:55:30;16.20;99.90
42019;DHT22;27703;51.980;5.848;2023-05-07T06:57:56;16.20;99.90
42019;DHT22;27703;51.980;5.848;2023-05-07T07:00:23;16.20;99.90
42019;DHT22;27703;51.980;5.848;2023-05-07T07:02:49;16.30;99.90
42019;DHT22;27703;51.980;5.848;2023-05-07T07:05:14;16.30;99.90
42019;DHT22;27703;51.980;5.848;2023-05-07T07:07:40;16.30;99.90
42019;DHT22;27703;51.980;5.848;2023-05-07T07:10:06;16.30;99.90
42019;DHT22;27703;51.980;5.848;2023-05-07T07:12:31;16.40;99.90
42019;DHT22;27703;51.980;5.848;2023-05-07T07:14:57;16.40;99.90
42019;DHT22;27703;51.980;5.848;2023-05-07T07:17:22;16.40;99.90
42019;DHT22;27703;51.980;5.848;2023-05-07T07:19:48;16.40;99.90
42019;DHT22;27703;51.980;5.848;2023-05-07T07:22:14;16.50;99.90
42019;DHT22;27703;51.980;5.848;2023-05-07T07:24:39;16.50;99.90
42019;DHT22;27703;51.980;5.848;2023-05-07T07:27:05;16.60;99.90
42019;DHT22;27703;51.980;5.848;2023-05-07T07:29:30;16.60;99.90
42019;DHT22;27703;51.980;5.848;2023-05-07T07:31:56;16.60;99.90
42019;DHT22;27703;51.980;5.848;2023-05-07T07:34:21;16.70;99.90
42019;DHT22;27703;51.980;5.848;2023-05-07T07:36:47;16.70;99.90
42019;DHT22;27703;51.980;5.848;2023-05-07T07:39:13;16.80;99.90
42019;DHT22;27703;51.980;5.848;2023-05-07T07:41:39;16.90;99.90
42019;DHT22;27703;51.980;5.848;2023-05-07T07:44:04;16.90;99.90
42019;DHT22;27703;51.980;5.848;2023-05-07T07:46:32;17.00;99.90
42019;DHT22;27703;51.980;5.848;2023-05-07T07:48:58;17.00;99.90
42019;DHT22;27703;51.980;5.848;2023-05-07T07:51:25;17.00;99.90
42019;DHT22;27703;51.980;5.848;2023-05-07T07:53:51;17.00;99.90
42019;DHT22;27703;51.980;5.848;2023-05-07T07:56:17;17.00;99.90
42019;DHT22;27703;51.980;5.848;2023-05-07T07:58:42;17.10;99.90
42019;DHT22;27703;51.980;5.848;2023-05-07T08:01:08;17.10;99.90
42019;DHT22;27703;51.980;5.848;2023-05-07T08:03:33;17.10;99.90
42019;DHT22;27703;51.980;5.848;2023-05-07T08:05:59;17.10;99.90
42019;DHT22;27703;51.980;5.848;2023-05-07T08:08:25;17.10;99.90
42019;DHT22;27703;51.980;5.848;2023-05-07T08:10:50;17.10;99.90
42019;DHT22;27703;51.980;5.848;2023-05-07T08:13:17;17.10;99.90
42019;DHT22;27703;51.980;5.848;2023-05-07T08:15:43;17.20;99.90
42019;DHT22;27703;51.980;5.848;2023-05-07T08:18:08;17.20;99.90
42019;DHT22;27703;51.980;5.848;2023-05-07T08:20:35;17.30;99.90
42019;DHT22;27703;51.980;5.848;2023-05-07T08:23:04;17.30;99.90
42019;DHT22;27703;51.980;5.848;2023-05-07T08:25:35;17.40;99.90
42019;DHT22;27703;51.980;5.848;2023-05-07T08:28:01;17.40;99.90
42019;DHT22;27703;51.980;5.848;2023-05-07T08:30:28;17.40;99.90
42019;DHT22;27703;51.980;5.848;2023-05-07T08:32:54;17.50;99.90
42019;DHT22;27703;51.980;5.848;2023-05-07T08:35:19;17.50;99.90
42019;DHT22;27703;51.980;5.848;2023-05-07T08:37:45;17.50;99.90
42019;DHT22;27703;51.980;5.848;2023-05-07T08:40:11;17.60;99.90
42019;DHT22;27703;51.980;5.848;2023-05-07T08:42:36;17.70;99.90
42019;DHT22;27703;51.980;5.848;2023-05-07T08:45:04;17.70;99.90
42019;DHT22;27703;51.980;5.848;2023-05-07T08:47:42;17.70;99.90
42019;DHT22;27703;51.980;5.848;2023-05-07T08:50:09;17.80;99.90
42019;DHT22;27703;51.980;5.848;2023-05-07T08:52:35;17.80;99.90
42019;DHT22;27703;51.980;5.848;2023-05-07T08:55:02;17.80;99.90
42019;DHT22;27703;51.980;5.848;2023-05-07T08:57:28;17.90;99.90
42019;DHT22;27703;51.980;5.848;2023-05-07T08:59:53;17.90;99.90
42019;DHT22;27703;51.980;5.848;2023-05-07T09:02:19;18.00;99.90
42019;DHT22;27703;51.980;5.848;2023-05-07T09:04:45;18.00;99.90
42019;DHT22;27703;51.980;5.848;2023-05-07T09:07:11;18.00;99.90
42019;DHT22;27703;51.980;5.848;2023-05-07T09:09:37;18.00;99.90
42019;DHT22;27703;51.980;5.848;2023-05-07T09:12:02;18.10;99.90
42019;DHT22;27703;51.980;5.848;2023-05-07T09:14:29;18.10;99.90
42019;DHT22;27703;51.980;5.848;2023-05-07T09:16:56;18.20;99.90
42019;DHT22;27703;51.980;5.848;2023-05-07T09:19:25;18.30;99.90
42019;DHT22;27703;51.980;5.848;2023-05-07T09:22:01;18.40;99.90
42019;DHT22;27703;51.980;5.848;2023-05-07T09:24:28;18.50;99.90
42019;DHT22;27703;51.980;5.848;2023-05-07T09:26:57;18.60;99.90
42019;DHT22;27703;51.980;5.848;2023-05-07T09:29:23;18.60;99.90
42019;DHT22;27703;51.980;5.848;2023-05-07T09:31:49;18.70;99.90
42019;DHT22;27703;51.980;5.848;2023-05-07T09:34:14;18.80;99.90
42019;DHT22;27703;51.980;5.848;2023-05-07T09:36:40;18.80;99.90
42019;DHT22;27703;51.980;5.848;2023-05-07T09:39:05;18.90;99.90
42019;DHT22;27703;51.980;5.848;2023-05-07T09:41:31;19.00;99.90
42019;DHT22;27703;51.980;5.848;2023-05-07T09:43:58;19.00;99.90
42019;DHT22;27703;51.980;5.848;2023-05-07T09:46:27;19.20;99.90
42019;DHT22;27703;51.980;5.848;2023-05-07T09:48:57;19.30;99.90
42019;DHT22;27703;51.980;5.848;2023-05-07T09:51:28;19.40;99.90
42019;DHT22;27703;51.980;5.848;2023-05-07T09:53:56;19.60;99.90
42019;DHT22;27703;51.980;5.848;2023-05-07T09:56:22;19.70;99.90
42019;DHT22;27703;51.980;5.848;2023-05-07T09:58:49;19.80;99.90
42019;DHT22;27703;51.980;5.848;2023-05-07T10:01:17;19.90;99.90
42019;DHT22;27703;51.980;5.848;2023-05-07T10:03:45;20.00;99.90
42019;DHT22;27703;51.980;5.848;2023-05-07T10:06:12;20.00;99.90
42019;DHT22;27703;51.980;5.848;2023-05-07T10:08:38;20.10;99.90
42019;DHT22;27703;51.980;5.848;2023-05-07T10:11:05;20.10;99.90
42019;DHT22;27703;51.980;5.848;2023-05-07T10:13:34;20.10;99.90
42019;DHT22;27703;51.980;5.848;2023-05-07T10:16:02;20.20;99.90
42019;DHT22;27703;51.980;5.848;2023-05-07T10:18:33;20.20;99.90
42019;DHT22;27703;51.980;5.848;2023-05-07T10:21:04;20.30;99.90
42019;DHT22;27703;51.980;5.848;2023-05-07T10:23:32;20.50;99.90
42019;DHT22;27703;51.980;5.848;2023-05-07T10:26:01;20.60;99.90
42019;DHT22;27703;51.980;5.848;2023-05-07T10:28:29;20.70;99.90
42019;DHT22;27703;51.980;5.848;2023-05-07T10:33:31;20.80;99.90
42019;DHT22;27703;51.980;5.848;2023-05-07T10:36:00;20.90;99.90
42019;DHT22;27703;51.980;5.848;2023-05-07T10:38:27;21.00;99.90
42019;DHT22;27703;51.980;5.848;2023-05-07T10:40:53;21.30;99.90
42019;DHT22;27703;51.980;5.848;2023-05-07T10:43:19;21.50;99.90
42019;DHT22;27703;51.980;5.848;2023-05-07T10:46:20;21.80;99.90
42019;DHT22;27703;51.980;5.848;2023-05-07T10:51:32;22.20;99.90
42019;DHT22;27703;51.980;5.848;2023-05-07T10:56:42;22.20;99.90
42019;DHT22;27703;51.980;5.848;2023-05-07T11:01:56;22.30;99.90
42019;DHT22;27703;51.980;5.848;2023-05-07T11:04:23;22.30;99.90
42019;DHT22;27703;51.980;5.848;2023-05-07T11:10:01;22.30;99.90
42019;DHT22;27703;51.980;5.848;2023-05-07T11:15:11;22.10;99.90
42019;DHT22;27703;51.980;5.848;2023-05-07T11:17:53;22.00;99.90
42019;DHT22;27703;51.980;5.848;2023-05-07T11:20:19;21.90;99.90
42019;DHT22;27703;51.980;5.848;2023-05-07T11:22:46;21.90;99.90
42019;DHT22;27703;51.980;5.848;2023-05-07T11:25:17;21.90;99.90
42019;DHT22;27703;51.980;5.848;2023-05-07T11:27:44;21.90;99.90
42019;DHT22;27703;51.980;5.848;2023-05-07T11:30:11;21.90;99.90
42019;DHT22;27703;51.980;5.848;2023-05-07T11:32:42;22.00;99.90
42019;DHT22;27703;51.980;5.848;2023-05-07T11:35:08;22.00;99.90
42019;DHT22;27703;51.980;5.848;2023-05-07T11:37:33;22.00;99.90
42019;DHT22;27703;51.980;5.848;2023-05-07T11:40:06;22.00;99.90
42019;DHT22;27703;51.980;5.848;2023-05-07T11:42:34;22.00;99.90
42019;DHT22;27703;51.980;5.848;2023-05-07T11:45:00;22.00;99.90
42019;DHT22;27703;51.980;5.848;2023-05-07T11:47:30;21.90;99.90
42019;DHT22;27703;51.980;5.848;2023-05-07T11:49:56;21.90;99.90
42019;DHT22;27703;51.980;5.848;2023-05-07T11:52:23;21.80;99.90
42019;DHT22;27703;51.980;5.848;2023-05-07T11:54:56;21.80;99.90
42019;DHT22;27703;51.980;5.848;2023-05-07T11:57:23;21.80;99.90
42019;DHT22;27703;51.980;5.848;2023-05-07T12:00:01;21.80;99.90
42019;DHT22;27703;51.980;5.848;2023-05-07T12:02:29;21.80;99.90
42019;DHT22;27703;51.980;5.848;2023-05-07T12:04:55;21.80;99.90
42019;DHT22;27703;51.980;5.848;2023-05-07T12:07:20;21.80;99.90
42019;DHT22;27703;51.980;5.848;2023-05-07T12:09:47;21.80;99.90
42019;DHT22;27703;51.980;5.848;2023-05-07T12:12:13;21.80;99.90
42019;DHT22;27703;51.980;5.848;2023-05-07T12:14:43;21.90;99.90
42019;DHT22;27703;51.980;5.848;2023-05-07T12:17:10;21.90;99.90
42019;DHT22;27703;51.980;5.848;2023-05-07T12:19:38;21.90;99.90
42019;DHT22;27703;51.980;5.848;2023-05-07T12:22:04;21.90;99.90
42019;DHT22;27703;51.980;5.848;2023-05-07T12:27:09;21.90;99.90
42019;DHT22;27703;51.980;5.848;2023-05-07T12:29:34;21.90;99.90
42019;DHT22;27703;51.980;5.848;2023-05-07T12:32:00;21.90;99.90
42019;DHT22;27703;51.980;5.848;2023-05-07T12:34:25;22.00;99.90
42019;DHT22;27703;51.980;5.848;2023-05-07T12:36:51;22.00;99.90
42019;DHT22;27703;51.980;5.848;2023-05-07T12:39:16;22.00;99.90
42019;DHT22;27703;51.980;5.848;2023-05-07T12:42:00;21.90;99.90
42019;DHT22;27703;51.980;5.848;2023-05-07T12:44:31;21.90;99.90
42019;DHT22;27703;51.980;5.848;2023-05-07T12:46:56;21.90;99.90
42019;DHT22;27703;51.980;5.848;2023-05-07T12:49:25;21.90;99.90
42019;DHT22;27703;51.980;5.848;2023-05-07T12:51:51;21.90;99.90
42019;DHT22;27703;51.980;5.848;2023-05-07T12:54:32;21.90;99.90
42019;DHT22;27703;51.980;5.848;2023-05-07T12:57:16;21.90;99.90
42019;DHT22;27703;51.980;5.848;2023-05-07T12:59:44;21.90;99.90
42019;DHT22;27703;51.980;5.848;2023-05-07T13:02:09;21.90;99.90
42019;DHT22;27703;51.980;5.848;2023-05-07T13:04:35;21.90;99.90
42019;DHT22;27703;51.980;5.848;2023-05-07T13:07:01;21.90;99.90
42019;DHT22;27703;51.980;5.848;2023-05-07T13:09:27;21.90;99.90
42019;DHT22;27703;51.980;5.848;2023-05-07T13:11:54;21.90;99.90
42019;DHT22;27703;51.980;5.848;2023-05-07T13:14:20;21.90;99.90
42019;DHT22;27703;51.980;5.848;2023-05-07T13:16:46;21.90;99.90
42019;DHT22;27703;51.980;5.848;2023-05-07T13:19:12;21.80;99.90
42019;DHT22;27703;51.980;5.848;2023-05-07T13:21:37;21.80;99.90
42019;DHT22;27703;51.980;5.848;2023-05-07T13:24:03;21.80;99.90
42019;DHT22;27703;51.980;5.848;2023-05-07T13:26:30;21.80;99.90
42019;DHT22;27703;51.980;5.848;2023-05-07T13:28:56;21.80;99.90
42019;DHT22;27703;51.980;5.848;2023-05-07T13:31:22;21.80;99.90
42019;DHT22;27703;51.980;5.848;2023-05-07T13:33:47;21.80;99.90
42019;DHT22;27703;51.980;5.848;2023-05-07T13:36:13;21.80;99.90
42019;DHT22;27703;51.980;5.848;2023-05-07T13:38:39;21.90;99.90
42019;DHT22;27703;51.980;5.848;2023-05-07T13:41:05;22.00;99.90
42019;DHT22;27703;51.980;5.848;2023-05-07T13:43:30;22.00;99.90
42019;DHT22;27703;51.980;5.848;2023-05-07T13:45:59;22.00;99.90
42019;DHT22;27703;51.980;5.848;2023-05-07T13:48:24;22.10;99.90
42019;DHT22;27703;51.980;5.848;2023-05-07T13:50:50;22.20;99.90
42019;DHT22;27703;51.980;5.848;2023-05-07T13:53:15;22.20;99.90
42019;DHT22;27703;51.980;5.848;2023-05-07T13:55:43;22.30;99.90
42019;DHT22;27703;51.980;5.848;2023-05-07T13:58:09;22.20;99.90
42019;DHT22;27703;51.980;5.848;2023-05-07T14:00:35;22.30;99.90
42019;DHT22;27703;51.980;5.848;2023-05-07T14:03:01;22.30;99.90
42019;DHT22;27703;51.980;5.848;2023-05-07T14:05:26;22.30;99.90
42019;DHT22;27703;51.980;5.848;2023-05-07T14:07:59;22.40;99.90
42019;DHT22;27703;51.980;5.848;2023-05-07T14:10:25;22.40;99.90
42019;DHT22;27703;51.980;5.848;2023-05-07T14:12:51;22.40;99.90
42019;DHT22;27703;51.980;5.848;2023-05-07T14:15:17;22.40;99.90
42019;DHT22;27703;51.980;5.848;2023-05-07T14:17:43;22.30;99.90
42019;DHT22;27703;51.980;5.848;2023-05-07T14:20:09;22.20;99.90
42019;DHT22;27703;51.980;5.848;2023-05-07T14:22:36;22.20;99.90
42019;DHT22;27703;51.980;5.848;2023-05-07T14:25:01;22.20;99.90
42019;DHT22;27703;51.980;5.848;2023-05-07T14:27:27;22.20;99.90
42019;DHT22;27703;51.980;5.848;2023-05-07T14:29:52;22.10;99.90
42019;DHT22;27703;51.980;5.848;2023-05-07T14:32:18;22.10;99.90
42019;DHT22;27703;51.980;5.848;2023-05-07T14:34:44;22.00;99.90
42019;DHT22;27703;51.980;5.848;2023-05-07T14:37:10;21.90;99.90
42019;DHT22;27703;51.980;5.848;2023-05-07T14:39:35;21.90;99.90
42019;DHT22;27703;51.980;5.848;2023-05-07T14:42:01;21.80;99.90
42019;DHT22;27703;51.980;5.848;2023-05-07T14:44:26;21.70;99.90
42019;DHT22;27703;51.980;5.848;2023-05-07T14:46:52;21.60;99.90
42019;DHT22;27703;51.980;5.848;2023-05-07T14:49:17;21.50;99.90
42019;DHT22;27703;51.980;5.848;2023-05-07T14:51:44;21.50;99.90
42019;DHT22;27703;51.980;5.848;2023-05-07T14:54:10;21.40;99.90
42019;DHT22;27703;51.980;5.848;2023-05-07T14:56:36;21.40;99.90
42019;DHT22;27703;51.980;5.848;2023-05-07T14:59:02;21.30;99.90
42019;DHT22;27703;51.980;5.848;2023-05-07T15:01:28;21.30;99.90
42019;DHT22;27703;51.980;5.848;2023-05-07T15:03:54;21.30;99.90
42019;DHT22;27703;51.980;5.848;2023-05-07T15:06:21;21.20;99.90
42019;DHT22;27703;51.980;5.848;2023-05-07T15:08:47;21.20;99.90
42019;DHT22;27703;51.980;5.848;2023-05-07T15:11:14;21.10;99.90
42019;DHT22;27703;51.980;5.848;2023-05-07T15:13:39;21.10;99.90
42019;DHT22;27703;51.980;5.848;2023-05-07T15:16:05;21.10;99.90
42019;DHT22;27703;51.980;5.848;2023-05-07T15:18:30;21.00;99.90
42019;DHT22;27703;51.980;5.848;2023-05-07T15:20:56;20.90;99.90
42019;DHT22;27703;51.980;5.848;2023-05-07T15:23:23;20.90;99.90
42019;DHT22;27703;51.980;5.848;2023-05-07T15:25:48;20.90;99.90
42019;DHT22;27703;51.980;5.848;2023-05-07T15:28:14;20.90;99.90
42019;DHT22;27703;51.980;5.848;2023-05-07T15:30:39;20.70;99.90
42019;DHT22;27703;51.980;5.848;2023-05-07T15:33:05;20.40;99.90
42019;DHT22;27703;51.980;5.848;2023-05-07T15:35:31;20.20;99.90
42019;DHT22;27703;51.980;5.848;2023-05-07T15:37:56;20.10;99.90
42019;DHT22;27703;51.980;5.848;2023-05-07T15:40:22;19.90;99.90
42019;DHT22;27703;51.980;5.848;2023-05-07T15:42:48;19.80;99.90
42019;DHT22;27703;51.980;5.848;2023-05-07T15:45:13;19.70;99.90
42019;DHT22;27703;51.980;5.848;2023-05-07T15:47:39;19.50;99.90